Time;durP1;ratioP1;P1;durP2;ratioP2;P2;SDS_P1;SDS_P2;PMS_P1;PMS_P2;Temp;Humidity;BMP_temperature;BMP_pressure;BME280_temperature;BME280_humidity;BME280_pressure;Samples;Min_cycle;Max_cycle;Signal;HPM_P1;HPM_P2
2021/09/11 00:00:56;;;;;;;;;37.33;34.67;23.10;40.00;;;;;;5074099;28;8776;-69
2021/09/11 00:03:22;;;;;;;;;40.00;36.67;23.10;40.20;;;;;;5074172;28;8770;-67
2021/09/11 00:05:48;;;;;;;;;42.00;38.67;23.00;40.40;;;;;;5074364;28;8866;-69
2021/09/11 00:08:14;;;;;;;;;40.33;36.33;23.10;40.40;;;;;;5094142;28;8777;-70
2021/09/11 00:10:39;;;;;;;;;41.00;37.33;23.20;40.30;;;;;;5094102;28;8790;-72
2021/09/11 00:13:05;;;;;;;;;41.00;37.67;23.30;40.20;;;;;;5094469;28;8760;-68
2021/09/11 00:15:32;;;;;;;;;45.75;40.00;23.30;40.20;;;;;;5094433;28;8759;-69
2021/09/11 00:17:59;;;;;;;;;47.33;40.33;23.20;40.10;;;;;;5094360;28;8782;-70
2021/09/11 00:20:25;;;;;;;;;44.00;39.00;23.30;40.20;;;;;;5096179;28;8799;-67
2021/09/11 00:22:51;;;;;;;;;46.33;40.67;23.30;40.00;;;;;;5098035;28;8750;-71
2021/09/11 00:25:17;;;;;;;;;41.00;37.00;23.30;39.90;;;;;;5098013;28;8811;-69
2021/09/11 00:27:43;;;;;;;;;46.33;40.33;23.30;40.20;;;;;;5098204;28;8777;-71
2021/09/11 00:30:09;;;;;;;;;39.67;36.00;23.30;40.20;;;;;;5097840;28;8781;-69
2021/09/11 00:32:35;;;;;;;;;49.00;42.00;23.30;41.10;;;;;;5097961;28;8777;-70
2021/09/11 00:35:01;;;;;;;;;41.00;36.67;23.30;40.10;;;;;;5097870;28;8770;-71
2021/09/11 00:37:27;;;;;;;;;39.67;36.67;23.30;40.10;;;;;;5097730;28;8766;-69
2021/09/11 00:39:53;;;;;;;;;46.00;40.33;23.30;40.20;;;;;;5097970;28;8769;-71
2021/09/11 00:42:19;;;;;;;;;44.00;38.00;23.30;40.20;;;;;;5097777;28;8769;-69
2021/09/11 00:44:45;;;;;;;;;46.33;39.67;23.30;40.20;;;;;;5097691;28;9340;-70
2021/09/11 00:47:10;;;;;;;;;45.67;40.67;23.30;40.20;;;;;;5097816;28;8784;-71
2021/09/11 00:49:36;;;;;;;;;44.00;39.33;23.20;40.20;;;;;;5097488;28;8819;-70
2021/09/11 00:52:02;;;;;;;;;45.67;40.33;23.20;40.20;;;;;;5097502;28;8781;-70
2021/09/11 00:54:29;;;;;;;;;48.00;41.75;23.20;40.20;;;;;;5097268;28;8789;-71
2021/09/11 00:56:55;;;;;;;;;45.00;40.00;23.20;40.30;;;;;;5097210;28;8801;-71
2021/09/11 00:59:21;;;;;;;;;45.00;39.00;23.20;40.50;;;;;;5097354;28;8804;-71
2021/09/11 01:01:47;;;;;;;;;46.50;39.75;23.20;40.50;;;;;;5097312;28;8785;-71
2021/09/11 01:04:13;;;;;;;;;49.33;42.33;23.20;40.50;;;;;;5097292;28;8782;-71
2021/09/11 01:06:39;;;;;;;;;50.25;43.50;23.20;40.40;;;;;;5097237;28;8966;-71
2021/09/11 01:09:05;;;;;;;;;51.00;43.75;23.20;40.50;;;;;;5097086;28;8880;-71
2021/09/11 01:11:33;;;;;;;;;51.25;44.00;23.10;40.50;;;;;;5097109;28;8774;-68
2021/09/11 01:13:59;;;;;;;;;50.00;43.50;23.10;40.60;;;;;;5097015;28;8766;-68
2021/09/11 01:16:25;;;;;;;;;48.33;42.00;23.20;40.60;;;;;;5097012;28;8792;-71
2021/09/11 01:18:51;;;;;;;;;45.25;39.75;23.20;40.60;;;;;;5096930;28;8789;-72
2021/09/11 01:21:17;;;;;;;;;40.33;37.33;23.10;40.70;;;;;;5096971;28;8754;-71
2021/09/11 01:23:42;;;;;;;;;44.67;39.67;23.10;40.40;;;;;;5096836;28;8776;-68
2021/09/11 01:26:09;;;;;;;;;41.67;37.33;23.00;40.60;;;;;;5096940;28;8810;-70
2021/09/11 01:28:34;;;;;;;;;42.33;37.67;22.80;40.50;;;;;;5096719;28;8753;-71
2021/09/11 01:31:00;;;;;;;;;41.33;38.00;22.80;40.60;;;;;;5096005;28;8760;-70
2021/09/11 01:33:26;;;;;;;;;38.33;35.67;22.80;40.70;;;;;;5096482;28;8796;-69
2021/09/11 01:35:55;;;;;;;;;30.33;30.33;22.70;40.90;;;;;;5096661;28;8834;-69
2021/09/11 01:38:20;;;;;;;;;45.33;39.67;22.70;41.10;;;;;;5096862;28;8856;-69
2021/09/11 01:40:46;;;;;;;;;42.00;35.00;22.60;41.30;;;;;;5096546;28;9443;-69
2021/09/11 01:43:12;;;;;;;;;46.67;40.33;22.60;41.40;;;;;;5096752;28;8761;-69
2021/09/11 01:45:38;;;;;;;;;51.00;43.75;22.70;41.20;;;;;;5096667;28;8774;-69
2021/09/11 01:48:04;;;;;;;;;50.75;43.75;22.60;41.10;;;;;;5096600;28;8766;-68
2021/09/11 01:50:29;;;;;;;;;65.25;54.25;22.60;41.10;;;;;;5096493;28;8840;-69
2021/09/11 01:52:55;;;;;;;;;72.75;60.25;22.60;41.30;;;;;;5096334;28;9431;-70
2021/09/11 01:55:21;;;;;;;;;56.00;47.00;22.60;41.30;;;;;;5096063;28;8924;-70
2021/09/11 01:57:48;;;;;;;;;65.75;54.00;22.50;41.10;;;;;;5096119;28;8782;-69
2021/09/11 02:00:18;;;;;;;;;59.50;50.25;22.40;41.20;;;;;;5096128;28;8758;-69
2021/09/11 02:02:45;;;;;;;;;59.50;50.00;22.30;41.40;;;;;;5096073;28;8834;-69
2021/09/11 02:05:12;;;;;;;;;57.25;47.75;22.40;41.50;;;;;;5096049;28;8786;-68
2021/09/11 02:07:39;;;;;;;;;59.25;49.75;22.40;41.50;;;;;;5095995;28;8893;-70
2021/09/11 02:10:07;;;;;;;;;55.50;47.00;22.40;41.60;;;;;;5095885;28;8807;-68
2021/09/11 02:12:33;;;;;;;;;55.50;46.75;22.40;41.70;;;;;;5096089;28;8986;-70
2021/09/11 02:14:59;;;;;;;;;54.50;46.00;22.40;41.70;;;;;;5095923;28;8773;-67
2021/09/11 02:17:25;;;;;;;;;55.75;47.00;22.40;41.60;;;;;;5095798;28;8824;-69
2021/09/11 02:19:50;;;;;;;;;54.00;45.75;22.30;41.80;;;;;;5096001;28;8784;-68
2021/09/11 02:22:16;;;;;;;;;51.50;44.00;22.30;42.00;;;;;;5095800;28;8750;-69
2021/09/11 02:24:42;;;;;;;;;48.75;41.75;22.30;42.20;;;;;;5095603;28;8836;-68
2021/09/11 02:27:08;;;;;;;;;49.00;42.50;22.20;42.40;;;;;;5095700;28;8773;-70
2021/09/11 02:29:35;;;;;;;;;47.25;41.25;22.30;42.30;;;;;;5095570;28;8871;-69
2021/09/11 02:32:04;;;;;;;;;48.00;41.67;22.20;42.40;;;;;;5095587;28;8765;-70
2021/09/11 02:34:31;;;;;;;;;50.50;43.50;22.20;42.30;;;;;;5095550;28;8766;-70
2021/09/11 02:36:57;;;;;;;;;50.50;43.50;22.30;42.50;;;;;;5095479;28;8746;-69
2021/09/11 02:39:23;;;;;;;;;46.00;40.00;22.20;42.30;;;;;;5095724;28;8861;-70
2021/09/11 02:41:49;;;;;;;;;44.33;39.33;22.20;42.10;;;;;;5095442;28;8818;-69
2021/09/11 02:44:15;;;;;;;;;35.00;34.00;22.20;42.20;;;;;;5095319;28;8753;-71
2021/09/11 02:46:41;;;;;;;;;44.00;38.33;22.10;42.10;;;;;;5095500;28;8750;-70
2021/09/11 05:14:46;;;;;;;;;50.00;43.00;21.00;45.20;;;;;;5091644;23;8879;-69
2021/09/11 05:17:12;;;;;;;;;53.25;45.00;20.90;45.50;;;;;;4835861;29;8836;-68
2021/09/11 05:19:39;;;;;;;;;50.00;43.00;20.90;45.50;;;;;;4838391;29;9537;-70
2021/09/11 05:22:05;;;;;;;;;55.25;47.25;20.90;45.50;;;;;;4838113;29;9368;-69
2021/09/11 05:24:31;;;;;;;;;53.00;45.25;21.00;45.30;;;;;;4832448;29;8845;-68
2021/09/11 05:26:57;;;;;;;;;50.00;42.75;21.10;45.20;;;;;;4834395;29;8842;-68
2021/09/11 05:29:23;;;;;;;;;53.50;46.00;21.20;45.00;;;;;;4837843;29;8851;-69
2021/09/11 05:31:49;;;;;;;;;53.75;45.75;21.20;45.00;;;;;;4828655;29;8955;-69
2021/09/11 05:34:15;;;;;;;;;51.00;44.00;21.30;45.30;;;;;;4831239;29;8833;-69
2021/09/11 05:36:40;;;;;;;;;52.50;44.50;21.40;44.90;;;;;;4835455;29;8890;-69
2021/09/11 05:39:06;;;;;;;;;51.50;44.25;21.60;44.60;;;;;;4834113;29;8840;-70
2021/09/11 05:41:32;;;;;;;;;52.75;44.75;21.60;44.50;;;;;;4836427;29;8793;-69
2021/09/11 05:43:58;;;;;;;;;50.00;43.00;21.60;44.60;;;;;;4837712;29;9525;-69
2021/09/11 05:46:24;;;;;;;;;51.75;44.00;21.60;44.60;;;;;;4831022;29;8800;-73
2021/09/11 05:48:49;;;;;;;;;48.00;41.00;21.70;44.40;;;;;;4827845;29;9561;-69
2021/09/11 05:51:15;;;;;;;;;52.75;43.50;21.80;44.30;;;;;;4835010;29;8815;-70
2021/09/11 05:53:41;;;;;;;;;49.00;42.00;21.90;44.50;;;;;;4841555;29;8823;-69
2021/09/11 05:56:07;;;;;;;;;45.25;40.00;22.00;44.20;;;;;;4833841;29;8844;-70
2021/09/11 05:58:32;;;;;;;;;48.25;42.00;22.10;43.90;;;;;;4834919;29;8866;-69
2021/09/11 06:00:58;;;;;;;;;55.75;47.50;22.20;44.10;;;;;;4826810;29;8814;-69
2021/09/11 06:03:24;;;;;;;;;48.75;41.75;22.20;43.90;;;;;;4826883;29;8805;-69
2021/09/11 06:05:50;;;;;;;;;52.75;45.50;22.30;43.70;;;;;;4835660;29;8834;-69
2021/09/11 06:08:16;;;;;;;;;51.50;44.25;22.30;43.70;;;;;;4834856;29;8803;-69
2021/09/11 06:10:41;;;;;;;;;51.75;44.50;22.40;43.90;;;;;;4826559;29;8949;-70
2021/09/11 06:13:07;;;;;;;;;53.00;45.25;22.40;43.50;;;;;;4828935;29;8846;-69
2021/09/11 06:15:34;;;;;;;;;52.50;44.75;22.50;43.40;;;;;;4840378;29;8870;-68
2021/09/11 06:18:00;;;;;;;;;56.25;47.50;22.40;43.40;;;;;;4825922;29;8807;-69
2021/09/11 06:20:26;;;;;;;;;50.00;43.25;22.40;43.60;;;;;;4825505;29;8914;-69
2021/09/11 06:22:51;;;;;;;;;55.50;46.75;22.60;43.70;;;;;;4829216;29;8808;-69
2021/09/11 06:25:17;;;;;;;;;55.50;46.75;22.80;43.60;;;;;;4844220;29;8812;-69
2021/09/11 06:27:43;;;;;;;;;52.50;45.25;22.80;43.60;;;;;;4844775;29;8823;-70
2021/09/11 06:30:11;;;;;;;;;55.25;46.75;22.80;43.60;;;;;;4844458;29;9500;-70
2021/09/11 06:32:37;;;;;;;;;56.50;47.50;22.80;43.40;;;;;;4844765;29;8816;-70
2021/09/11 06:35:05;;;;;;;;;59.75;49.75;22.90;43.20;;;;;;4844593;29;8812;-69
2021/09/11 06:37:31;;;;;;;;;58.50;48.50;23.00;43.00;;;;;;4844238;29;8804;-69
2021/09/11 06:39:58;;;;;;;;;55.75;47.50;23.00;42.90;;;;;;4844585;29;8867;-69
2021/09/11 06:42:23;;;;;;;;;54.75;46.50;23.10;43.10;;;;;;4844101;29;8823;-70
2021/09/11 06:44:50;;;;;;;;;56.25;48.00;23.10;43.30;;;;;;4844482;29;8796;-69
2021/09/11 06:47:16;;;;;;;;;56.50;47.75;23.20;43.30;;;;;;4844158;29;8807;-69
2021/09/11 06:49:41;;;;;;;;;55.25;46.50;23.30;43.00;;;;;;4831225;29;9538;-69
2021/09/11 06:52:09;;;;;;;;;55.00;47.50;23.40;43.10;;;;;;4825978;29;8791;-69
2021/09/11 06:54:35;;;;;;;;;56.75;48.25;23.50;43.30;;;;;;4842035;29;8792;-70
2021/09/11 06:57:02;;;;;;;;;55.00;46.75;23.50;43.20;;;;;;4843461;29;8820;-70
2021/09/11 06:59:27;;;;;;;;;51.75;44.50;23.60;43.20;;;;;;4830568;29;9522;-69
2021/09/11 07:01:53;;;;;;;;;50.25;42.75;23.60;42.60;;;;;;4833975;29;8934;-69
2021/09/11 07:04:19;;;;;;;;;51.00;43.50;23.60;42.60;;;;;;4833306;29;8846;-69
2021/09/11 07:06:45;;;;;;;;;53.00;45.00;23.70;42.00;;;;;;4831702;29;8861;-71
2021/09/11 07:09:11;;;;;;;;;51.75;43.75;23.70;41.90;;;;;;4833793;29;8860;-69
2021/09/11 07:11:36;;;;;;;;;50.75;42.75;23.70;42.10;;;;;;4841407;29;9480;-70
2021/09/11 07:14:02;;;;;;;;;51.00;44.25;23.90;41.90;;;;;;4843452;29;8859;-69
2021/09/11 07:16:28;;;;;;;;;42.75;38.00;23.90;41.70;;;;;;4833982;29;8814;-71
2021/09/11 07:18:54;;;;;;;;;49.25;42.75;23.90;41.40;;;;;;4825362;29;8938;-71
2021/09/11 07:21:20;;;;;;;;;46.25;40.25;24.00;41.60;;;;;;4825389;29;8895;-69
2021/09/11 07:23:46;;;;;;;;;47.00;40.33;24.10;41.60;;;;;;4825399;29;8810;-70
2021/09/11 07:26:18;;;;;;;;;46.25;41.00;24.20;41.20;;;;;;4825764;29;8799;-71
2021/09/11 07:28:48;;;;;;;;;50.50;43.25;24.10;42.30;;;;;;4824263;29;8802;-71
2021/09/11 07:31:15;;;;;;;;;51.00;43.75;24.20;41.00;;;;;;4825741;29;8896;-70
2021/09/11 07:33:42;;;;;;;;;44.67;39.33;24.30;41.00;;;;;;4832215;29;9508;-69
2021/09/11 07:36:08;;;;;;;;;43.33;38.00;24.40;40.30;;;;;;4841521;29;8918;-70
2021/09/11 07:38:34;;;;;;;;;51.75;44.25;24.40;39.30;;;;;;4843532;29;8934;-70
2021/09/11 07:41:00;;;;;;;;;48.33;41.00;24.40;39.80;;;;;;4843449;29;8796;-69
2021/09/11 07:43:26;;;;;;;;;51.00;43.75;24.50;39.60;;;;;;4843517;29;8847;-70
2021/09/11 07:45:52;;;;;;;;;48.00;42.00;24.50;39.40;;;;;;4841631;29;8820;-70
2021/09/11 07:48:18;;;;;;;;;45.33;39.67;24.60;39.20;;;;;;4831491;29;8827;-68
2021/09/11 07:50:43;;;;;;;;;46.00;40.00;24.60;39.20;;;;;;4832435;29;8838;-70
2021/09/11 07:53:09;;;;;;;;;39.33;36.33;24.70;38.80;;;;;;4835642;29;8812;-70
2021/09/11 07:55:35;;;;;;;;;42.00;37.33;24.80;38.40;;;;;;4825969;29;8807;-69
2021/09/11 07:58:01;;;;;;;;;39.00;36.00;24.80;38.10;;;;;;4831886;29;8824;-70
2021/09/11 08:00:28;;;;;;;;;39.00;36.00;24.90;38.10;;;;;;4835085;29;8820;-68
2021/09/11 08:02:54;;;;;;;;;39.33;36.00;25.00;38.10;;;;;;4825339;29;8819;-70
2021/09/11 08:05:20;;;;;;;;;44.33;38.33;25.10;38.00;;;;;;4839025;29;8864;-63
2021/09/11 08:07:46;;;;;;;;;46.33;40.00;25.20;37.90;;;;;;4835578;29;8812;-73
2021/09/11 08:10:12;;;;;;;;;39.33;36.00;25.30;37.80;;;;;;4832699;29;8919;-68
2021/09/11 08:12:38;;;;;;;;;34.67;33.67;25.30;37.50;;;;;;4834406;29;8822;-67
2021/09/11 08:15:04;;;;;;;;;39.67;36.33;25.40;37.70;;;;;;4824860;29;8866;-72
2021/09/11 08:17:30;;;;;;;;;37.33;34.33;25.50;36.80;;;;;;4834225;29;8827;-70
2021/09/11 08:19:56;;;;;;;;;39.00;36.00;25.60;36.90;;;;;;4832479;29;8986;-69
2021/09/11 08:22:22;;;;;;;;;36.67;34.33;25.60;36.60;;;;;;4831257;29;8891;-69
2021/09/11 08:24:48;;;;;;;;;35.33;33.00;25.70;36.60;;;;;;4837444;29;9454;-71
2021/09/11 08:27:14;;;;;;;;;34.00;32.00;25.80;36.10;;;;;;4833029;29;8810;-65
2021/09/11 08:29:42;;;;;;;;;32.67;31.67;25.90;36.20;;;;;;4831040;29;8875;-66
2021/09/11 08:32:07;;;;;;;;;34.33;32.67;25.90;35.80;;;;;;4835976;29;9475;-66
2021/09/11 08:34:34;;;;;;;;;38.00;34.00;26.00;35.60;;;;;;4825059;29;8822;-69
2021/09/11 08:36:59;;;;;;;;;39.00;35.33;26.10;35.90;;;;;;4833696;29;8807;-70
2021/09/11 08:39:26;;;;;;;;;34.67;33.00;26.10;35.60;;;;;;4830927;29;8815;-72
2021/09/11 08:41:54;;;;;;;;;36.33;33.33;26.20;35.00;;;;;;4828956;29;8819;-67
2021/09/11 08:44:19;;;;;;;;;38.67;34.33;26.30;35.20;;;;;;4846635;29;8863;-69
2021/09/11 08:46:48;;;;;;;;;33.33;32.33;26.30;35.30;;;;;;4837016;29;8799;-66
2021/09/11 08:49:15;;;;;;;;;33.00;32.00;26.40;35.20;;;;;;4835909;29;8848;-68
2021/09/11 08:51:41;;;;;;;;;33.00;31.67;26.50;35.10;;;;;;4838466;29;8822;-70
2021/09/11 08:54:07;;;;;;;;;36.00;33.33;26.50;34.80;;;;;;4837264;29;8840;-66
2021/09/11 08:56:39;;;;;;;;;35.00;33.00;26.60;34.80;;;;;;4841785;29;8830;-70
2021/09/11 08:59:17;;;;;;;;;35.67;33.33;26.80;34.90;;;;;;4828075;29;8811;-66
2021/09/11 09:01:59;;;;;;;;;33.33;32.00;26.80;34.20;;;;;;4828005;29;8803;-68
2021/09/11 09:04:48;;;;;;;;;35.33;32.67;26.90;33.90;;;;;;4827912;29;8909;-65
2021/09/11 09:07:41;;;;;;;;;31.67;30.67;27.00;34.50;;;;;;4827799;29;8802;-68
2021/09/11 09:10:10;;;;;;;;;33.33;32.00;27.00;33.60;;;;;;4827556;29;8873;-69
2021/09/11 09:12:39;;;;;;;;;29.67;29.67;27.00;34.10;;;;;;4827166;29;8787;-67
2021/09/11 09:15:05;;;;;;;;;30.33;30.00;27.10;33.70;;;;;;4827483;29;8850;-67
2021/09/11 09:17:42;;;;;;;;;31.00;30.33;27.10;32.60;;;;;;4838630;29;8844;-65
2021/09/11 09:20:34;;;;;;;;;34.33;32.33;27.20;32.50;;;;;;4845722;29;8918;-71
2021/09/11 09:23:00;;;;;;;;;31.67;30.67;27.30;32.40;;;;;;4844328;29;8820;-68
2021/09/11 09:25:32;;;;;;;;;32.00;31.00;27.30;32.20;;;;;;4829391;29;8830;-68
2021/09/11 09:28:00;;;;;;;;;33.33;32.33;27.40;32.50;;;;;;4833467;29;8849;-70
2021/09/11 09:30:35;;;;;;;;;31.33;30.67;27.50;32.60;;;;;;4832639;29;8840;-71
2021/09/11 09:33:02;;;;;;;;;32.00;31.00;27.60;32.10;;;;;;4844472;29;8788;-71
2021/09/11 09:35:28;;;;;;;;;37.00;34.00;27.70;31.90;;;;;;4845342;29;8830;-72
2021/09/11 09:38:07;;;;;;;;;30.33;30.00;27.80;31.70;;;;;;4838811;29;8795;-70
2021/09/11 09:40:53;;;;;;;;;40.00;35.33;27.90;31.70;;;;;;4834148;29;9526;-69
2021/09/11 09:43:29;;;;;;;;;30.00;30.00;28.00;31.40;;;;;;4845111;29;8843;-70
2021/09/11 09:46:06;;;;;;;;;31.00;30.33;28.20;31.10;;;;;;4843564;29;8816;-68
2021/09/11 09:48:36;;;;;;;;;29.33;29.33;28.30;30.70;;;;;;4827187;29;8799;-71
2021/09/11 09:51:05;;;;;;;;;28.33;28.33;28.50;30.80;;;;;;4836358;29;8856;-68
2021/09/11 09:53:31;;;;;;;;;31.67;30.67;28.50;30.10;;;;;;4844469;29;8806;-70
2021/09/11 09:55:57;;;;;;;;;25.67;25.67;28.60;30.20;;;;;;4838814;29;9616;-67
2021/09/11 09:58:23;;;;;;;;;27.67;27.67;28.80;29.80;;;;;;4827042;29;8814;-67
2021/09/11 10:00:49;;;;;;;;;27.33;27.33;28.90;29.70;;;;;;4826650;29;8807;-66
2021/09/11 10:03:15;;;;;;;;;29.67;29.67;29.10;29.70;;;;;;4826721;29;8818;-66
2021/09/11 10:05:47;;;;;;;;;26.67;26.67;29.20;29.00;;;;;;4833385;29;8823;-67
2021/09/11 10:08:14;;;;;;;;;26.33;26.33;29.40;28.80;;;;;;4843742;29;11020;-66
2021/09/11 10:10:44;;;;;;;;;28.67;28.67;29.60;28.40;;;;;;4837787;29;9489;-66
2021/09/11 10:13:18;;;;;;;;;26.33;26.33;29.80;28.80;;;;;;4828584;29;8827;-68
2021/09/11 10:15:55;;;;;;;;;25.00;25.00;30.10;27.80;;;;;;4826715;29;8826;-67
2021/09/11 10:18:30;;;;;;;;;25.67;25.67;30.20;27.90;;;;;;4826528;29;9731;-66
2021/09/11 10:21:35;;;;;;;;;28.67;28.67;30.40;27.50;;;;;;4826567;29;8799;-66
2021/09/11 10:24:00;;;;;;;;;28.00;28.00;30.60;27.10;;;;;;4826198;29;8887;-65
2021/09/11 10:26:48;;;;;;;;;25.67;25.67;30.80;27.40;;;;;;4826324;29;8803;-66
2021/09/11 10:29:34;;;;;;;;;26.67;26.67;30.90;27.10;;;;;;4826263;29;8838;-68
2021/09/11 10:32:11;;;;;;;;;30.00;30.00;31.20;27.50;;;;;;4827675;29;8827;-66
2021/09/11 10:34:47;;;;;;;;;23.33;23.33;31.40;26.80;;;;;;4842249;29;8835;-67
2021/09/11 10:37:31;;;;;;;;;27.33;27.33;31.60;26.70;;;;;;4834715;29;11699;-66
2021/09/11 10:40:18;;;;;;;;;27.33;27.33;31.80;26.50;;;;;;4844146;29;8831;-66
2021/09/11 10:43:30;;;;;;;;;24.00;24.00;32.00;25.90;;;;;;4835080;29;8971;-67
2021/09/11 10:46:02;;;;;;;;;27.00;27.00;32.20;24.80;;;;;;4835899;29;11670;-66
2021/09/11 10:48:31;;;;;;;;;25.67;25.67;32.50;25.40;;;;;;4826489;29;9426;-66
2021/09/11 10:51:13;;;;;;;;;25.00;25.00;32.60;25.80;;;;;;4830052;29;11702;-66
2021/09/11 10:53:39;;;;;;;;;24.67;24.67;32.70;24.90;;;;;;4834725;29;11753;-66
2021/09/11 10:56:28;;;;;;;;;27.00;27.00;32.80;25.20;;;;;;4833452;29;11745;-65
2021/09/11 10:59:15;;;;;;;;;23.33;23.33;33.10;24.90;;;;;;4837263;29;9483;-65
2021/09/11 11:02:03;;;;;;;;;24.67;24.67;33.20;24.70;;;;;;4843514;29;11650;-66
2021/09/11 11:04:34;;;;;;;;;26.33;26.33;33.20;24.00;;;;;;4841607;29;11796;-65
2021/09/11 11:07:02;;;;;;;;;24.67;24.67;33.40;23.80;;;;;;4835362;29;11778;-67
2021/09/11 11:09:37;;;;;;;;;26.33;26.33;33.60;24.30;;;;;;4831156;29;11752;-65
2021/09/11 11:12:04;;;;;;;;;26.67;25.33;33.90;24.60;;;;;;4829174;29;11695;-64
2021/09/11 11:14:31;;;;;;;;;23.67;23.67;34.10;24.30;;;;;;4825460;29;12433;-65
2021/09/11 11:16:57;;;;;;;;;30.00;29.33;34.30;24.50;;;;;;4827588;29;11695;-65
2021/09/11 11:19:28;;;;;;;;;28.00;27.00;34.50;24.30;;;;;;4827742;29;11756;-65
2021/09/11 11:22:16;;;;;;;;;21.50;21.50;34.60;24.40;;;;;;4836021;29;11641;-66
2021/09/11 11:24:47;;;;;;;;;23.75;23.00;34.60;22.40;;;;;;4840181;29;11652;-66
2021/09/11 11:27:15;;;;;;;;;21.25;21.25;34.70;23.10;;;;;;4840006;29;11643;-67
2021/09/11 11:29:46;;;;;;;;;23.50;23.50;34.80;22.10;;;;;;4834921;29;11693;-64
2021/09/11 11:32:12;;;;;;;;;25.33;25.33;34.70;22.20;;;;;;4840710;29;11619;-68
2021/09/11 11:34:38;;;;;;;;;24.00;24.00;34.80;21.80;;;;;;4842271;29;11759;-69
2021/09/11 11:37:07;;;;;;;;;25.67;25.67;35.10;22.60;;;;;;4841909;29;11700;-63
2021/09/11 11:39:37;;;;;;;;;27.67;27.67;35.00;21.80;;;;;;4842040;29;11730;-62
2021/09/11 11:42:09;;;;;;;;;27.00;27.00;35.10;21.40;;;;;;4836849;29;9452;-63
2021/09/11 11:44:40;;;;;;;;;18.33;18.33;35.30;21.50;;;;;;4843689;29;11747;-65
2021/09/11 11:47:24;;;;;;;;;21.75;21.75;35.70;21.70;;;;;;4843310;29;11737;-65
2021/09/11 11:49:51;;;;;;;;;19.67;19.67;36.00;20.80;;;;;;4843174;29;11686;-65
2021/09/11 11:52:18;;;;;;;;;21.33;21.33;35.80;20.20;;;;;;4843021;29;11794;-65
2021/09/11 11:54:46;;;;;;;;;18.50;18.50;35.80;20.90;;;;;;4842994;29;11660;-65
2021/09/11 11:57:20;;;;;;;;;21.00;21.00;35.60;20.60;;;;;;4843417;29;12313;-66
2021/09/11 12:00:02;;;;;;;;;18.00;18.00;36.00;20.70;;;;;;4843089;29;12178;-65
2021/09/11 12:02:32;;;;;;;;;20.50;20.50;36.20;20.50;;;;;;4843706;29;11723;-66
2021/09/11 12:05:18;;;;;;;;;21.00;21.00;36.20;20.30;;;;;;4843073;29;11669;-66
2021/09/11 12:07:58;;;;;;;;;25.33;25.33;36.40;20.10;;;;;;4843201;29;12276;-66
2021/09/11 12:10:26;;;;;;;;;20.75;20.75;36.80;20.40;;;;;;4842885;29;11753;-66
2021/09/11 12:12:55;;;;;;;;;20.00;20.00;36.90;19.90;;;;;;4843026;29;12441;-66
2021/09/11 12:15:27;;;;;;;;;21.50;21.50;36.80;19.50;;;;;;4842937;29;11668;-66
2021/09/11 12:18:01;;;;;;;;;16.75;16.75;36.90;19.30;;;;;;4846469;29;11754;-65
2021/09/11 12:20:29;;;;;;;;;18.50;18.50;37.90;19.00;;;;;;4846562;29;11648;-66
2021/09/11 12:23:12;;;;;;;;;16.00;16.00;39.90;17.30;;;;;;4846623;29;11629;-65
2021/09/11 12:25:58;;;;;;;;;17.75;17.75;43.60;16.10;;;;;;4846542;29;11631;-66
2021/09/11 12:28:37;;;;;;;;;18.25;18.25;47.50;13.80;;;;;;4846767;29;11749;-66
2021/09/11 12:31:14;;;;;;;;;20.00;20.00;49.60;12.60;;;;;;4846651;29;12309;-66
2021/09/11 12:34:04;;;;;;;;;20.00;20.00;51.50;11.70;;;;;;4846666;29;12320;-66
2021/09/11 12:36:33;;;;;;;;;17.25;17.25;52.40;10.80;;;;;;4843505;29;11668;-66
2021/09/11 12:39:16;;;;;;;;;16.75;16.75;53.30;10.40;;;;;;4846470;29;11651;-65
2021/09/11 12:41:49;;;;;;;;;17.25;17.25;54.40;10.20;;;;;;4846565;29;11727;-65
2021/09/11 12:44:19;;;;;;;;;17.00;17.00;54.20;9.70;;;;;;4846459;29;11672;-62
2021/09/11 12:46:56;;;;;;;;;20.25;18.75;53.90;9.80;;;;;;4846392;29;12460;-63
2021/09/11 12:49:24;;;;;;;;;17.50;17.50;54.10;9.70;;;;;;4846133;29;11687;-63
2021/09/11 12:51:51;;;;;;;;;18.00;18.00;54.50;9.70;;;;;;4846296;29;12499;-64
2021/09/11 12:54:18;;;;;;;;;19.50;19.50;55.30;9.30;;;;;;4846051;29;11670;-63
2021/09/11 12:56:44;;;;;;;;;17.75;17.75;55.90;9.60;;;;;;4846083;29;11648;-63
2021/09/11 12:59:12;;;;;;;;;18.00;18.00;56.30;9.10;;;;;;4845821;29;11719;-65
2021/09/11 13:01:38;;;;;;;;;15.50;15.50;57.00;9.00;;;;;;4846213;29;12251;-63
2021/09/11 13:04:10;;;;;;;;;17.50;17.50;57.40;8.90;;;;;;4842131;29;11721;-67
2021/09/11 13:06:37;;;;;;;;;16.00;16.00;57.60;8.30;;;;;;4834845;29;11667;-67
2021/09/11 13:09:04;;;;;;;;;14.00;14.00;57.20;9.70;;;;;;4835958;29;11829;-65
2021/09/11 13:11:30;;;;;;;;;14.00;14.00;57.70;7.90;;;;;;4836799;29;11646;-64
2021/09/11 13:13:56;;;;;;;;;17.75;17.75;57.80;8.20;;;;;;4828628;29;11814;-64
2021/09/11 13:16:22;;;;;;;;;19.00;18.00;57.60;8.40;;;;;;4827364;29;8886;-66
2021/09/11 13:18:48;;;;;;;;;18.00;18.00;57.70;8.10;;;;;;4827193;29;11657;-64
2021/09/11 13:21:16;;;;;;;;;22.33;22.33;57.20;8.00;;;;;;4837108;29;8804;-65
2021/09/11 13:23:47;;;;;;;;;19.00;19.00;57.60;8.60;;;;;;4837263;29;11710;-62
2021/09/11 13:26:14;;;;;;;;;20.67;20.33;57.80;8.50;;;;;;4833076;29;11698;-63
2021/09/11 13:28:41;;;;;;;;;19.33;19.33;57.90;8.40;;;;;;4833170;29;11756;-63
2021/09/11 13:31:08;;;;;;;;;18.00;18.00;57.10;8.10;;;;;;4837025;29;11692;-64
2021/09/11 13:33:35;;;;;;;;;18.00;18.00;57.20;8.40;;;;;;4833754;29;12376;-63
2021/09/11 13:36:01;;;;;;;;;23.67;23.67;57.60;8.30;;;;;;4841264;29;11664;-63
2021/09/11 13:38:27;;;;;;;;;24.67;24.67;57.60;8.40;;;;;;4842880;29;8851;-64
2021/09/11 13:40:53;;;;;;;;;28.67;27.67;57.70;8.30;;;;;;4837771;29;8815;-63
2021/09/11 13:43:20;;;;;;;;;25.67;25.67;57.80;8.30;;;;;;4841993;29;8840;-67
2021/09/11 13:45:46;;;;;;;;;22.00;22.00;57.60;8.30;;;;;;4837634;29;8823;-66
2021/09/11 13:48:11;;;;;;;;;27.00;26.00;57.40;8.40;;;;;;4827281;29;8935;-69
2021/09/11 13:50:37;;;;;;;;;22.00;22.00;56.70;8.50;;;;;;4826818;29;8859;-68
2021/09/11 13:53:03;;;;;;;;;23.00;23.00;56.00;9.20;;;;;;4826945;29;8795;-65
2021/09/11 13:55:29;;;;;;;;;20.33;20.33;55.30;8.60;;;;;;4826682;29;8815;-65
2021/09/11 13:57:57;;;;;;;;;20.33;18.67;54.20;8.90;;;;;;4835136;29;8828;-64
2021/09/11 14:00:23;;;;;;;;;21.00;21.00;51.30;9.00;;;;;;4836145;29;11683;-66
2021/09/11 14:02:49;;;;;;;;;20.00;20.00;48.20;10.20;;;;;;4826772;29;8842;-63
2021/09/11 14:05:14;;;;;;;;;22.33;22.33;45.60;11.70;;;;;;4834116;29;11642;-64
2021/09/11 14:07:40;;;;;;;;;20.00;20.00;43.80;13.70;;;;;;4836744;29;8808;-64
2021/09/11 14:10:07;;;;;;;;;23.00;23.00;42.20;14.00;;;;;;4836949;29;8852;-63
2021/09/11 14:12:32;;;;;;;;;21.50;21.50;41.10;14.80;;;;;;4832347;29;8835;-64
2021/09/11 14:14:58;;;;;;;;;20.50;20.50;40.20;15.30;;;;;;4841741;29;11706;-64
2021/09/11 14:17:28;;;;;;;;;23.00;22.00;39.30;15.70;;;;;;4836375;29;8828;-65
2021/09/11 14:19:54;;;;;;;;;17.00;17.00;38.70;18.00;;;;;;4840783;29;8832;-65
2021/09/11 14:22:20;;;;;;;;;24.00;24.00;38.10;17.00;;;;;;4836740;29;11699;-64
2021/09/11 14:24:45;;;;;;;;;24.33;24.33;37.50;17.50;;;;;;4833513;29;8822;-63
2021/09/11 14:27:12;;;;;;;;;28.33;28.33;36.70;17.80;;;;;;4829591;29;8820;-68
2021/09/11 14:29:38;;;;;;;;;20.33;20.33;36.10;18.20;;;;;;4844346;29;8864;-68
2021/09/11 14:32:04;;;;;;;;;21.33;21.33;35.80;18.40;;;;;;4843296;29;11724;-69
2021/09/11 14:34:33;;;;;;;;;23.00;23.00;35.20;18.50;;;;;;4844601;29;8918;-69
2021/09/11 14:36:58;;;;;;;;;22.00;22.00;34.90;19.10;;;;;;4844586;29;8814;-65
2021/09/11 14:39:24;;;;;;;;;24.00;24.00;34.50;19.10;;;;;;4843871;29;11650;-65
2021/09/11 14:41:50;;;;;;;;;25.00;25.00;34.20;19.00;;;;;;4844221;29;8892;-63
2021/09/11 14:44:16;;;;;;;;;22.33;22.33;34.10;19.70;;;;;;4844520;29;8897;-64
2021/09/11 14:46:42;;;;;;;;;23.33;23.33;34.10;20.30;;;;;;4844453;29;8807;-64
2021/09/11 14:49:08;;;;;;;;;22.00;22.00;33.80;21.60;;;;;;4844152;29;8818;-67
2021/09/11 14:51:33;;;;;;;;;21.33;21.33;33.80;21.60;;;;;;4837938;29;8906;-65
2021/09/11 14:53:59;;;;;;;;;23.00;23.00;33.70;21.20;;;;;;4834026;29;8831;-65
2021/09/11 14:56:26;;;;;;;;;18.00;18.00;33.70;21.00;;;;;;4832381;29;8823;-64
2021/09/11 14:58:51;;;;;;;;;23.33;23.33;33.50;21.30;;;;;;4831359;29;8818;-64
2021/09/11 15:01:17;;;;;;;;;24.67;24.67;33.30;21.10;;;;;;4825724;29;9525;-65
2021/09/11 15:03:43;;;;;;;;;22.67;22.67;33.30;21.20;;;;;;4835778;29;8842;-65
2021/09/11 15:06:09;;;;;;;;;25.67;25.67;33.20;21.70;;;;;;4837857;29;8854;-65
2021/09/11 15:08:35;;;;;;;;;25.00;25.00;33.20;21.80;;;;;;4833954;29;8946;-64